createdAt,value
2017-09-19T00:00:57.537Z,0
2017-09-19T00:01:58.931Z,0
2017-09-19T00:03:00.320Z,0
2017-09-19T00:04:01.735Z,0
2017-09-19T00:05:03.104Z,0
2017-09-19T00:06:04.556Z,0
2017-09-19T00:07:06.209Z,0
2017-09-19T00:08:07.589Z,0
2017-09-19T00:09:08.963Z,0
2017-09-19T00:10:10.340Z,0
2017-09-19T00:11:11.724Z,0
2017-09-19T00:12:13.180Z,0
2017-09-19T00:13:14.814Z,0
2017-09-19T00:14:16.480Z,0
2017-09-19T00:15:18.078Z,0
2017-09-19T00:16:19.747Z,0
2017-09-19T00:17:21.163Z,0
2017-09-19T00:18:22.573Z,0
2017-09-19T00:19:23.945Z,0
2017-09-19T00:20:25.324Z,0
2017-09-19T00:21:27.137Z,0
2017-09-19T00:22:28.691Z,0
2017-09-19T00:23:30.329Z,0
2017-09-19T00:24:31.935Z,0
2017-09-19T00:25:33.705Z,0
2017-09-19T00:26:35.156Z,0
2017-09-19T00:27:36.858Z,0
2017-09-19T00:28:38.377Z,0
2017-09-19T00:29:40.127Z,0
2017-09-19T00:30:41.813Z,0
2017-09-19T00:31:43.219Z,0
2017-09-19T00:32:44.826Z,0
2017-09-19T00:33:46.484Z,0
2017-09-19T00:34:48.106Z,0
2017-09-19T00:35:49.493Z,0
2017-09-19T00:36:50.937Z,0
2017-09-19T00:37:52.374Z,0
2017-09-19T00:38:53.756Z,0
2017-09-19T00:39:55.136Z,0
2017-09-19T00:40:56.565Z,0
2017-09-19T00:41:58.008Z,0
2017-09-19T00:42:59.402Z,0
2017-09-19T00:44:00.800Z,0
2017-09-19T00:45:02.186Z,0
2017-09-19T00:46:03.572Z,0
2017-09-19T00:47:05.313Z,0
2017-09-19T00:48:07.000Z,0
2017-09-19T00:49:08.420Z,0
2017-09-19T00:50:09.799Z,0
2017-09-19T00:51:11.174Z,0
2017-09-19T00:52:12.552Z,0
2017-09-19T00:53:13.951Z,0
2017-09-19T00:54:15.366Z,0
2017-09-19T00:55:16.920Z,0
2017-09-19T00:56:18.349Z,0
2017-09-19T00:57:19.758Z,0
2017-09-19T00:58:21.171Z,0
2017-09-19T00:59:22.592Z,0
2017-09-19T01:00:24.288Z,0
2017-09-19T01:01:25.957Z,0
2017-09-19T01:02:27.374Z,0
2017-09-19T01:03:29.064Z,0
2017-09-19T01:04:30.700Z,0
2017-09-19T01:05:32.075Z,0
2017-09-19T01:06:33.496Z,0
2017-09-19T01:07:35.244Z,0
2017-09-19T01:08:36.902Z,0
2017-09-19T01:09:38.523Z,0
2017-09-19T01:10:40.170Z,0
2017-09-19T01:11:41.836Z,0
2017-09-19T01:12:43.227Z,0
2017-09-19T01:13:44.625Z,0
2017-09-19T01:14:46.085Z,0
2017-09-19T01:15:47.812Z,0
2017-09-19T01:16:49.449Z,0
2017-09-19T01:17:50.856Z,0
2017-09-19T01:18:52.423Z,0
2017-09-19T01:19:53.851Z,0
2017-09-19T01:20:55.248Z,0
2017-09-19T01:21:56.630Z,0
2017-09-19T01:22:58.008Z,0
2017-09-19T01:23:59.697Z,0
2017-09-19T01:25:01.381Z,0
2017-09-19T01:26:02.801Z,0
2017-09-19T01:27:04.179Z,0
2017-09-19T01:28:05.579Z,0
2017-09-19T01:29:06.957Z,0
2017-09-19T01:30:08.368Z,0
2017-09-19T01:31:09.755Z,0
2017-09-19T01:32:11.132Z,0
2017-09-19T01:33:12.571Z,0
2017-09-19T01:34:13.942Z,0
2017-09-19T01:35:15.326Z,0
2017-09-19T01:36:16.705Z,0
2017-09-19T01:37:18.115Z,0
2017-09-19T01:38:19.487Z,0
2017-09-19T01:39:20.862Z,0
2017-09-19T01:40:22.247Z,0
2017-09-19T01:41:23.639Z,0
2017-09-19T01:42:25.007Z,0
2017-09-19T01:43:26.375Z,0
2017-09-19T01:44:27.745Z,0
2017-09-19T01:45:29.130Z,0
2017-09-19T01:46:30.510Z,0
2017-09-19T01:47:31.878Z,0
2017-09-19T01:48:33.455Z,0
2017-09-19T01:49:34.878Z,0
2017-09-19T01:50:36.301Z,0
2017-09-19T01:51:37.695Z,0
2017-09-19T01:52:39.090Z,0
2017-09-19T01:53:40.874Z,0
2017-09-19T01:54:42.304Z,0
2017-09-19T01:55:43.713Z,0
2017-09-19T01:56:45.133Z,0
2017-09-19T01:57:46.589Z,0
2017-09-19T01:58:48.517Z,0
2017-09-19T01:59:50.318Z,0
2017-09-19T02:00:51.756Z,0
2017-09-19T02:01:53.319Z,0
2017-09-19T02:02:54.706Z,0
2017-09-19T02:03:56.118Z,0
2017-09-19T02:04:57.515Z,0
2017-09-19T02:05:59.132Z,0
2017-09-19T02:07:00.508Z,0
2017-09-19T02:08:01.932Z,0
2017-09-19T02:09:03.354Z,0
2017-09-19T02:10:04.728Z,0
2017-09-19T02:11:06.121Z,0
2017-09-19T02:12:07.865Z,0
2017-09-19T02:13:09.612Z,0
2017-09-19T02:14:11.285Z,0
2017-09-19T02:15:12.988Z,0
2017-09-19T02:16:14.497Z,0
2017-09-19T02:17:15.890Z,0
2017-09-19T02:18:17.273Z,0
2017-09-19T02:19:18.666Z,0
2017-09-19T02:20:20.255Z,0
2017-09-19T02:21:22.111Z,0
2017-09-19T02:22:23.517Z,0
2017-09-19T02:23:24.938Z,0
2017-09-19T02:24:26.667Z,0
2017-09-19T02:25:28.350Z,0
2017-09-19T02:26:30.108Z,0
2017-09-19T02:27:31.613Z,0
2017-09-19T02:28:32.977Z,0
2017-09-19T02:29:34.592Z,0
2017-09-19T02:30:36.004Z,0
2017-09-19T02:31:37.380Z,0
2017-09-19T02:32:38.828Z,0
2017-09-19T02:33:40.246Z,0
2017-09-19T02:34:41.668Z,0
2017-09-19T02:35:43.067Z,0
2017-09-19T02:36:44.463Z,0
2017-09-19T02:37:45.864Z,0
2017-09-19T02:38:47.262Z,0
2017-09-19T02:39:48.866Z,0
2017-09-19T02:40:50.531Z,0
2017-09-19T02:41:52.300Z,0
2017-09-19T02:42:53.965Z,0
2017-09-19T02:43:55.443Z,0
2017-09-19T02:44:56.881Z,0
2017-09-19T02:45:58.261Z,0
2017-09-19T02:46:59.689Z,0
2017-09-19T02:48:01.367Z,0
2017-09-19T02:49:02.924Z,0
2017-09-19T02:50:04.594Z,0
2017-09-19T02:51:06.032Z,0
2017-09-19T02:52:07.525Z,0
2017-09-19T02:53:08.957Z,0
2017-09-19T02:54:10.325Z,0
2017-09-19T02:55:11.757Z,0
2017-09-19T02:56:13.409Z,0
2017-09-19T02:57:15.252Z,0
2017-09-19T02:58:16.743Z,0
2017-09-19T02:59:18.302Z,0
2017-09-19T03:00:19.668Z,0
2017-09-19T03:01:21.095Z,0
2017-09-19T03:02:22.469Z,0
2017-09-19T03:03:23.859Z,0
2017-09-19T03:04:25.266Z,0
2017-09-19T03:05:26.621Z,0
2017-09-19T03:06:27.996Z,0
2017-09-19T03:07:29.365Z,0
2017-09-19T03:08:30.735Z,0
2017-09-19T03:09:32.110Z,0
2017-09-19T03:10:33.657Z,0
2017-09-19T03:11:35.106Z,0
2017-09-19T03:12:36.496Z,0
2017-09-19T03:13:37.868Z,0
2017-09-19T03:14:39.281Z,0
2017-09-19T03:15:40.679Z,0
2017-09-19T03:16:42.063Z,0
2017-09-19T03:17:43.541Z,0
2017-09-19T03:18:45.137Z,0
2017-09-19T03:19:46.524Z,0
2017-09-19T03:20:48.007Z,0
2017-09-19T03:21:49.420Z,0
2017-09-19T03:22:50.786Z,0
2017-09-19T03:23:52.341Z,0
2017-09-19T03:24:53.720Z,0
2017-09-19T03:25:55.097Z,0
2017-09-19T03:26:56.531Z,0
2017-09-19T03:27:57.925Z,0
2017-09-19T03:28:59.301Z,0
2017-09-19T03:30:00.678Z,0
2017-09-19T03:31:02.073Z,0
2017-09-19T03:32:03.499Z,0
2017-09-19T03:33:05.828Z,0
2017-09-19T03:34:07.223Z,0
2017-09-19T03:35:08.631Z,0
2017-09-19T03:36:10.055Z,0
2017-09-19T03:37:11.457Z,0
2017-09-19T03:38:12.909Z,0
2017-09-19T03:39:15.056Z,0
2017-09-19T03:40:17.095Z,0
2017-09-19T03:41:18.689Z,0
2017-09-19T03:42:20.070Z,0
2017-09-19T03:43:21.466Z,0
2017-09-19T03:44:22.885Z,0
2017-09-19T03:45:24.885Z,0
2017-09-19T03:46:26.338Z,0
2017-09-19T03:47:29.330Z,0
2017-09-19T03:48:30.733Z,0
2017-09-19T03:49:32.134Z,0
2017-09-19T03:50:33.529Z,0
2017-09-19T03:51:34.908Z,0
2017-09-19T03:52:36.418Z,0
2017-09-19T03:53:37.787Z,0
2017-09-19T03:54:39.295Z,0
2017-09-19T03:55:40.805Z,0
2017-09-19T03:56:42.206Z,0
2017-09-19T03:57:43.599Z,0
2017-09-19T03:58:45.693Z,0
2017-09-19T03:59:47.974Z,0
2017-09-19T04:01:30.360Z,0
2017-09-19T04:02:31.731Z,0
2017-09-19T04:03:33.185Z,0
2017-09-19T04:04:34.530Z,0
2017-09-19T04:05:35.946Z,0
2017-09-19T04:06:37.812Z,0
2017-09-19T04:07:39.188Z,0
2017-09-19T04:08:40.567Z,0
2017-09-19T04:09:42.880Z,0
2017-09-19T04:10:44.451Z,0
2017-09-19T04:11:46.028Z,0
2017-09-19T04:12:47.653Z,0
2017-09-19T04:13:49.089Z,0
2017-09-19T04:14:50.489Z,0
2017-09-19T04:15:52.277Z,0
2017-09-19T04:16:54.408Z,0
2017-09-19T04:17:55.835Z,0
2017-09-19T04:18:58.000Z,0
2017-09-19T04:19:59.618Z,0
2017-09-19T04:21:01.812Z,0
2017-09-19T04:22:03.347Z,0
2017-09-19T04:23:05.359Z,0
2017-09-19T04:24:07.481Z,0
2017-09-19T04:25:09.590Z,0
2017-09-19T04:26:11.773Z,0
2017-09-19T04:27:13.385Z,0
2017-09-19T04:28:14.854Z,0
2017-09-19T04:29:16.831Z,0
2017-09-19T04:30:18.303Z,0
2017-09-19T04:31:20.274Z,0
2017-09-19T04:32:22.288Z,0
2017-09-19T04:33:24.498Z,0
2017-09-19T04:34:25.908Z,0
2017-09-19T04:35:27.548Z,0
2017-09-19T04:36:29.496Z,0
2017-09-19T04:37:31.658Z,0
2017-09-19T04:38:33.363Z,0
2017-09-19T04:39:35.066Z,0
2017-09-19T04:40:36.746Z,0
2017-09-19T04:41:38.696Z,0
2017-09-19T04:42:40.202Z,0
2017-09-19T04:43:41.660Z,0
2017-09-19T04:44:43.122Z,0
2017-09-19T04:45:44.712Z,0
2017-09-19T04:46:46.139Z,0
2017-09-19T04:47:47.962Z,0
2017-09-19T04:48:49.936Z,0
2017-09-19T04:49:51.849Z,0
2017-09-19T04:50:53.935Z,0
2017-09-19T04:51:55.946Z,0
2017-09-19T04:52:58.065Z,0
2017-09-19T04:53:59.914Z,0
2017-09-19T04:55:01.687Z,0
2017-09-19T04:56:03.648Z,0
2017-09-19T04:57:05.339Z,0
2017-09-19T04:58:07.314Z,0
2017-09-19T04:59:08.947Z,0
2017-09-19T05:00:10.639Z,0
2017-09-19T05:01:12.854Z,0
2017-09-19T05:02:14.368Z,0
2017-09-19T05:03:15.769Z,0
2017-09-19T05:04:17.321Z,0
2017-09-19T05:05:18.758Z,5
2017-09-19T05:06:20.185Z,5
2017-09-19T05:07:21.639Z,5
2017-09-19T05:08:23.353Z,5
2017-09-19T05:09:24.781Z,5
2017-09-19T05:10:26.595Z,5
2017-09-19T05:11:28.017Z,10
2017-09-19T05:12:29.429Z,10
2017-09-19T05:13:31.206Z,10
2017-09-19T05:14:33.255Z,10
2017-09-19T05:15:34.670Z,10
2017-09-19T05:16:36.721Z,15
2017-09-19T05:17:38.183Z,15
2017-09-19T05:18:39.868Z,15
2017-09-19T05:19:41.318Z,15
2017-09-19T05:20:42.890Z,20
2017-09-19T05:21:44.612Z,20
2017-09-19T05:22:46.038Z,20
2017-09-19T05:23:47.473Z,20
2017-09-19T05:24:48.896Z,20
2017-09-19T05:25:51.002Z,15
2017-09-19T05:26:52.800Z,15
2017-09-19T05:27:54.238Z,15
2017-09-19T05:28:56.220Z,10
2017-09-19T05:29:57.752Z,15
2017-09-19T05:30:59.154Z,15
2017-09-19T05:32:00.614Z,20
2017-09-19T05:33:02.194Z,20
2017-09-19T05:34:04.201Z,25
2017-09-19T05:35:05.660Z,30
2017-09-19T05:36:07.185Z,30
2017-09-19T05:37:08.586Z,35
2017-09-19T05:38:10.300Z,35
2017-09-19T05:39:12.412Z,30
2017-09-19T05:40:15.038Z,30
2017-09-19T05:41:16.458Z,30
2017-09-19T05:42:18.102Z,30
2017-09-19T05:43:19.556Z,25
2017-09-19T05:44:20.979Z,30
2017-09-19T05:45:22.672Z,35
2017-09-19T05:46:24.583Z,35
2017-09-19T05:47:26.053Z,45
2017-09-19T05:48:27.557Z,50
2017-09-19T05:49:29.090Z,60
2017-09-19T05:50:30.496Z,60
2017-09-19T05:51:32.357Z,45
2017-09-19T05:52:34.353Z,40
2017-09-19T05:53:35.980Z,35
2017-09-19T05:54:37.544Z,35
2017-09-19T05:55:39.017Z,40
2017-09-19T05:56:40.498Z,40
2017-09-19T05:57:42.189Z,40
2017-09-19T05:58:43.599Z,40
2017-09-19T05:59:45.250Z,40
2017-09-19T06:00:47.323Z,40
2017-09-19T06:01:48.763Z,40
2017-09-19T06:02:50.172Z,40
2017-09-19T06:03:51.628Z,35
2017-09-19T06:04:53.147Z,35
2017-09-19T06:05:55.128Z,35
2017-09-19T06:06:57.397Z,40
2017-09-19T06:07:59.063Z,45
2017-09-19T06:09:00.625Z,45
2017-09-19T06:10:02.082Z,50
2017-09-19T06:11:03.564Z,55
2017-09-19T06:12:05.025Z,60
2017-09-19T06:13:06.699Z,60
2017-09-19T06:14:08.333Z,65
2017-09-19T06:15:09.736Z,70
2017-09-19T06:16:11.189Z,75
2017-09-19T06:17:14.046Z,85
2017-09-19T06:18:15.421Z,95
2017-09-19T06:19:17.142Z,100
2017-09-19T06:20:18.553Z,110
2017-09-19T06:21:20.527Z,110
2017-09-19T06:22:22.052Z,110
2017-09-19T06:23:23.454Z,110
2017-09-19T06:24:25.243Z,110
2017-09-19T06:25:26.757Z,115
2017-09-19T06:26:28.127Z,115
2017-09-19T06:27:29.591Z,115
2017-09-19T06:28:31.061Z,110
2017-09-19T06:29:32.811Z,110
2017-09-19T06:30:34.478Z,105
2017-09-19T06:31:36.080Z,100
2017-09-19T06:32:37.537Z,100
2017-09-19T06:33:38.935Z,100
2017-09-19T06:34:40.573Z,100
2017-09-19T06:35:42.704Z,105
2017-09-19T06:36:44.276Z,110
2017-09-19T06:37:46.003Z,115
2017-09-19T06:38:47.764Z,125
2017-09-19T06:39:49.786Z,125
2017-09-19T06:40:51.182Z,120
2017-09-19T06:41:53.191Z,115
2017-09-19T06:42:54.727Z,115
2017-09-19T06:43:56.166Z,115
2017-09-19T06:44:57.605Z,120
2017-09-19T06:45:59.039Z,125
2017-09-19T06:47:00.479Z,130
2017-09-19T06:48:02.486Z,135
2017-09-19T06:49:04.272Z,140
2017-09-19T06:50:05.797Z,150
2017-09-19T06:51:07.315Z,155
2017-09-19T06:52:08.760Z,165
2017-09-19T06:53:10.248Z,165
2017-09-19T06:54:11.742Z,160
2017-09-19T06:55:13.493Z,155
2017-09-19T06:56:15.470Z,150
2017-09-19T06:57:16.963Z,145
2017-09-19T06:58:18.715Z,140
2017-09-19T06:59:20.259Z,140
2017-09-19T07:00:22.592Z,145
2017-09-19T07:01:24.298Z,150
2017-09-19T07:02:25.967Z,150
2017-09-19T07:03:27.431Z,150
2017-09-19T07:04:28.877Z,150
2017-09-19T07:05:30.876Z,155
2017-09-19T07:06:32.348Z,170
2017-09-19T07:07:33.843Z,190
2017-09-19T07:08:35.334Z,200
2017-09-19T07:09:36.978Z,210
2017-09-19T07:10:38.430Z,220
2017-09-19T07:11:40.416Z,235
2017-09-19T07:12:42.847Z,235
2017-09-19T07:13:44.167Z,240
2017-09-19T07:14:45.613Z,235
2017-09-19T07:15:47.138Z,235
2017-09-19T07:16:48.635Z,235
2017-09-19T07:17:50.321Z,230
2017-09-19T07:18:52.102Z,220
2017-09-19T07:19:53.602Z,215
2017-09-19T07:20:55.789Z,215
2017-09-19T07:21:58.049Z,215
2017-09-19T07:23:00.254Z,210
2017-09-19T07:24:02.294Z,210
2017-09-19T07:25:03.848Z,225
2017-09-19T07:26:05.273Z,235
2017-09-19T07:27:06.834Z,250
2017-09-19T07:28:08.303Z,250
2017-09-19T07:29:09.790Z,255
2017-09-19T07:30:11.282Z,270
2017-09-19T07:31:12.915Z,290
2017-09-19T07:32:14.495Z,305
2017-09-19T07:33:16.464Z,295
2017-09-19T07:34:18.087Z,255
2017-09-19T07:35:19.621Z,235
2017-09-19T07:36:21.312Z,250
2017-09-19T07:37:22.811Z,255
2017-09-19T07:38:24.374Z,225
2017-09-19T07:39:26.077Z,230
2017-09-19T07:40:27.709Z,260
2017-09-19T07:41:29.127Z,270
2017-09-19T07:42:31.254Z,265
2017-09-19T07:43:32.867Z,270
2017-09-19T07:44:34.342Z,315
2017-09-19T07:45:36.423Z,315
2017-09-19T07:46:38.150Z,300
2017-09-19T07:47:40.233Z,275
2017-09-19T07:49:25.494Z,260
2017-09-19T07:50:26.836Z,285
2017-09-19T07:51:28.255Z,305
2017-09-19T07:52:30.294Z,330
2017-09-19T07:53:32.047Z,345
2017-09-19T07:54:33.494Z,335
2017-09-19T07:55:35.244Z,315
2017-09-19T07:56:37.271Z,315
2017-09-19T07:57:38.787Z,325
2017-09-19T07:58:40.760Z,325
2017-09-19T07:59:42.499Z,315
2017-09-19T08:00:44.424Z,315
2017-09-19T08:01:46.584Z,305
2017-09-19T08:02:48.314Z,295
2017-09-19T08:03:50.078Z,275
2017-09-19T08:05:35.450Z,250
2017-09-19T08:06:36.849Z,240
2017-09-19T08:07:38.573Z,250
2017-09-19T08:08:40.554Z,250
2017-09-19T08:09:42.339Z,225
2017-09-19T08:10:45.196Z,235
2017-09-19T08:11:47.254Z,185
2017-09-19T08:12:49.279Z,180
2017-09-19T08:13:51.279Z,150
2017-09-19T08:14:53.369Z,130
2017-09-19T08:15:54.804Z,150
2017-09-19T08:16:56.440Z,210
2017-09-19T08:17:58.346Z,285
2017-09-19T08:18:59.993Z,325
2017-09-19T08:20:42.778Z,345
2017-09-19T08:21:45.855Z,325
2017-09-19T08:22:48.190Z,315
2017-09-19T08:23:49.861Z,350
2017-09-19T08:24:51.985Z,350
2017-09-19T08:25:55.515Z,360
2017-09-19T08:26:57.068Z,325
2017-09-19T08:27:59.089Z,310
2017-09-19T08:29:00.686Z,310
2017-09-19T08:30:02.349Z,315
2017-09-19T08:31:03.773Z,325
2017-09-19T08:32:05.191Z,340
2017-09-19T08:33:07.322Z,350
2017-09-19T08:34:08.769Z,365
2017-09-19T08:35:10.755Z,375
2017-09-19T08:36:56.661Z,400
2017-09-19T08:37:58.585Z,400
2017-09-19T08:39:00.676Z,405
2017-09-19T08:40:02.734Z,410
2017-09-19T08:41:04.127Z,410
2017-09-19T08:42:05.673Z,425
2017-09-19T08:43:07.715Z,440
2017-09-19T08:44:09.661Z,445
2017-09-19T08:45:11.260Z,440
2017-09-19T08:46:13.448Z,415
2017-09-19T08:47:14.888Z,385
2017-09-19T08:48:16.449Z,350
2017-09-19T08:49:17.850Z,335
2017-09-19T08:50:19.270Z,325
2017-09-19T08:51:20.899Z,325
2017-09-19T08:52:22.332Z,325
2017-09-19T08:53:23.943Z,335
2017-09-19T08:54:25.522Z,340
2017-09-19T08:55:27.669Z,355
2017-09-19T08:56:29.096Z,365
2017-09-19T08:57:30.729Z,375
2017-09-19T08:58:32.460Z,380
2017-09-19T08:59:33.857Z,380
2017-09-19T09:00:35.823Z,385
2017-09-19T09:01:37.280Z,395
2017-09-19T09:02:38.703Z,400
2017-09-19T09:03:40.362Z,390
2017-09-19T09:04:42.048Z,390
2017-09-19T09:05:44.096Z,400
2017-09-19T09:06:46.140Z,405
2017-09-19T09:07:47.625Z,425
2017-09-19T09:08:49.061Z,435
2017-09-19T09:09:50.620Z,470
2017-09-19T09:10:52.113Z,515
2017-09-19T09:11:53.631Z,480
2017-09-19T09:12:55.584Z,405
2017-09-19T09:13:57.686Z,340
2017-09-19T09:14:59.367Z,330
2017-09-19T09:16:01.471Z,310
2017-09-19T09:17:02.913Z,300
2017-09-19T09:18:04.537Z,310
2017-09-19T09:19:06.234Z,320
2017-09-19T09:20:08.579Z,345
2017-09-19T09:21:10.625Z,385
2017-09-19T09:22:12.784Z,435
2017-09-19T09:23:14.222Z,495
2017-09-19T09:24:15.702Z,540
2017-09-19T09:25:17.858Z,570
2017-09-19T09:26:19.970Z,585
2017-09-19T09:27:22.240Z,590
2017-09-19T09:28:24.239Z,630
2017-09-19T09:29:25.701Z,705
2017-09-19T09:30:27.182Z,755
2017-09-19T09:31:28.746Z,745
2017-09-19T09:32:30.180Z,715
2017-09-19T09:33:32.154Z,655
2017-09-19T09:34:34.402Z,595
2017-09-19T09:35:36.022Z,585
2017-09-19T09:36:38.171Z,610
2017-09-19T09:37:40.158Z,655
2017-09-19T09:38:42.299Z,725
2017-09-19T09:39:43.931Z,810
2017-09-19T09:41:27.632Z,910
2017-09-19T09:42:29.541Z,980
2017-09-19T09:43:31.738Z,1110
2017-09-19T09:44:33.314Z,1270
2017-09-19T09:45:35.370Z,1575
2017-09-19T09:46:36.839Z,1565
2017-09-19T09:47:38.277Z,1460
2017-09-19T09:48:40.394Z,1435
2017-09-19T09:49:41.839Z,1260
2017-09-19T09:50:43.337Z,1285
2017-09-19T09:51:45.724Z,1135
2017-09-19T09:52:47.394Z,1105
2017-09-19T09:53:49.522Z,850
2017-09-19T09:54:51.648Z,640
2017-09-19T09:55:53.335Z,505
2017-09-19T09:57:37.088Z,405
2017-09-19T09:58:38.608Z,425
2017-09-19T09:59:40.630Z,460
2017-09-19T10:00:42.802Z,495
2017-09-19T10:01:44.451Z,535
2017-09-19T10:02:45.878Z,560
2017-09-19T10:03:47.331Z,560
2017-09-19T10:04:48.755Z,570
2017-09-19T10:05:50.138Z,590
2017-09-19T10:06:51.731Z,615
2017-09-19T10:07:53.803Z,625
2017-09-19T10:08:55.260Z,610
2017-09-19T10:09:56.793Z,525
2017-09-19T10:10:59.130Z,515
2017-09-19T10:12:01.423Z,465
2017-09-19T10:13:03.081Z,490
2017-09-19T10:14:04.699Z,560
2017-09-19T10:15:06.083Z,530
2017-09-19T10:16:07.808Z,520
2017-09-19T10:17:09.730Z,520
2017-09-19T10:18:11.389Z,470
2017-09-19T10:19:13.540Z,420
2017-09-19T10:20:15.358Z,375
2017-09-19T10:21:16.736Z,375
2017-09-19T10:22:18.144Z,435
2017-09-19T10:23:19.759Z,525
2017-09-19T10:24:22.199Z,485
2017-09-19T10:25:24.118Z,495
2017-09-19T10:26:26.034Z,520
2017-09-19T10:27:27.726Z,470
2017-09-19T10:28:29.489Z,415
2017-09-19T10:29:31.342Z,390
2017-09-19T10:30:33.323Z,365
2017-09-19T10:31:34.957Z,355
2017-09-19T10:32:36.916Z,355
2017-09-19T10:33:39.025Z,355
2017-09-19T10:34:40.841Z,315
2017-09-19T10:35:42.825Z,280
2017-09-19T10:36:44.646Z,240
2017-09-19T10:37:46.049Z,210
2017-09-19T10:38:47.560Z,205
2017-09-19T10:39:49.584Z,230
2017-09-19T10:40:51.204Z,290
2017-09-19T10:41:52.885Z,330
2017-09-19T10:42:54.775Z,365
2017-09-19T10:43:56.459Z,425
2017-09-19T10:44:58.097Z,475
2017-09-19T10:46:00.133Z,475
2017-09-19T10:47:01.579Z,445
2017-09-19T10:48:03.023Z,525
2017-09-19T10:49:04.426Z,635
2017-09-19T10:50:06.020Z,655
2017-09-19T10:51:07.473Z,715
2017-09-19T10:52:09.042Z,830
2017-09-19T10:53:10.730Z,960
2017-09-19T10:54:13.106Z,755
2017-09-19T10:55:14.671Z,765
2017-09-19T10:56:16.543Z,785
2017-09-19T10:57:18.228Z,1255
2017-09-19T10:58:20.196Z,695
2017-09-19T10:59:21.669Z,715
2017-09-19T11:00:23.085Z,745
2017-09-19T11:01:24.499Z,630
2017-09-19T11:02:25.900Z,540
2017-09-19T11:03:27.480Z,590
2017-09-19T11:04:29.077Z,650
2017-09-19T11:05:30.906Z,710
2017-09-19T11:06:32.368Z,770
2017-09-19T11:07:33.767Z,870
2017-09-19T11:08:35.423Z,1610
2017-09-19T11:09:37.139Z,1825
2017-09-19T11:10:38.991Z,1880
2017-09-19T11:11:40.430Z,1825
2017-09-19T11:12:41.819Z,1785
2017-09-19T11:13:43.226Z,2025
2017-09-19T11:14:44.651Z,2070
2017-09-19T11:15:46.094Z,1455
2017-09-19T11:16:47.566Z,1735
2017-09-19T11:17:48.948Z,1025
2017-09-19T11:18:50.402Z,725
2017-09-19T11:19:52.310Z,675
2017-09-19T11:20:53.907Z,640
2017-09-19T11:21:55.363Z,610
2017-09-19T11:22:56.771Z,595
2017-09-19T11:23:58.216Z,595
2017-09-19T11:24:59.601Z,580
2017-09-19T11:26:00.996Z,595
2017-09-19T11:27:02.392Z,610
2017-09-19T11:28:03.785Z,645
2017-09-19T11:29:05.184Z,610
2017-09-19T11:30:06.668Z,575
2017-09-19T11:31:08.317Z,555
2017-09-19T11:32:10.107Z,530
2017-09-19T11:33:11.533Z,535
2017-09-19T11:34:12.973Z,545
2017-09-19T11:35:14.388Z,575
2017-09-19T11:36:15.798Z,615
2017-09-19T11:37:17.186Z,640
2017-09-19T11:38:18.575Z,660
2017-09-19T11:39:19.958Z,695
2017-09-19T11:40:21.343Z,630
2017-09-19T11:41:22.830Z,455
2017-09-19T11:42:24.208Z,350
2017-09-19T11:43:25.649Z,345
2017-09-19T11:44:27.068Z,340
2017-09-19T11:45:28.513Z,320
2017-09-19T11:46:29.928Z,315
2017-09-19T11:47:31.308Z,315
2017-09-19T11:48:32.789Z,320
2017-09-19T11:49:34.207Z,315
2017-09-19T11:50:35.638Z,315
2017-09-19T11:51:37.054Z,295
2017-09-19T11:52:38.539Z,275
2017-09-19T11:53:40.090Z,255
2017-09-19T11:54:41.509Z,255
2017-09-19T11:55:42.969Z,255
2017-09-19T11:56:44.354Z,285
2017-09-19T11:57:45.737Z,290
2017-09-19T11:58:47.119Z,320
2017-09-19T11:59:48.583Z,355
2017-09-19T12:00:49.970Z,395
2017-09-19T12:01:51.361Z,420
2017-09-19T12:02:52.730Z,440
2017-09-19T12:03:54.130Z,450
2017-09-19T12:04:55.506Z,445
2017-09-19T12:05:56.887Z,450
2017-09-19T12:06:58.279Z,455
2017-09-19T12:07:59.665Z,445
2017-09-19T12:09:01.039Z,430
2017-09-19T12:10:02.424Z,405
2017-09-19T12:11:03.809Z,395
2017-09-19T12:12:05.187Z,405
2017-09-19T12:13:06.565Z,410
2017-09-19T12:14:07.983Z,445
2017-09-19T12:15:09.356Z,480
2017-09-19T12:16:10.738Z,510
2017-09-19T12:17:12.126Z,550
2017-09-19T12:18:13.561Z,595
2017-09-19T12:19:14.954Z,710
2017-09-19T12:20:16.350Z,1740
2017-09-19T12:21:17.756Z,1185
2017-09-19T12:22:19.156Z,1575
2017-09-19T12:23:20.543Z,2850
2017-09-19T12:24:21.958Z,3065
2017-09-19T12:25:23.399Z,3095
2017-09-19T12:26:24.784Z,3175
2017-09-19T12:27:26.165Z,3115
2017-09-19T12:28:27.557Z,3105
2017-09-19T12:29:28.935Z,3160
2017-09-19T12:30:30.317Z,2595
2017-09-19T12:31:31.701Z,3160
2017-09-19T12:32:33.137Z,1530
2017-09-19T12:33:34.529Z,3340
2017-09-19T12:34:35.919Z,3245
2017-09-19T12:35:37.307Z,3310
2017-09-19T12:36:38.713Z,1195
2017-09-19T12:37:40.083Z,735
2017-09-19T12:38:41.468Z,610
2017-09-19T12:39:42.869Z,670
2017-09-19T12:40:44.255Z,895
2017-09-19T12:41:45.644Z,3000
2017-09-19T12:42:47.031Z,3105
2017-09-19T12:43:48.431Z,3090
2017-09-19T12:44:49.813Z,885
2017-09-19T12:45:51.203Z,835
2017-09-19T12:46:52.582Z,825
2017-09-19T12:47:53.982Z,2680
2017-09-19T12:48:55.372Z,2785
2017-09-19T12:49:56.761Z,2705
2017-09-19T12:50:58.146Z,2720
2017-09-19T12:51:59.536Z,2845
2017-09-19T12:53:00.924Z,2365
2017-09-19T12:54:02.314Z,2565
2017-09-19T12:55:03.702Z,2555
2017-09-19T12:56:05.099Z,2515
2017-09-19T12:57:06.484Z,2570
2017-09-19T12:58:07.872Z,2675
2017-09-19T12:59:09.265Z,2840
2017-09-19T13:00:10.656Z,3020
2017-09-19T13:01:12.043Z,3015
2017-09-19T13:02:13.432Z,2930
2017-09-19T13:03:14.824Z,2830
2017-09-19T13:04:16.216Z,2780
2017-09-19T13:05:17.623Z,2560
2017-09-19T13:06:19.015Z,2370
2017-09-19T13:07:20.401Z,2360
2017-09-19T13:08:21.793Z,2460
2017-09-19T13:09:23.188Z,2595
2017-09-19T13:10:24.582Z,2590
2017-09-19T13:11:25.969Z,2355
2017-09-19T13:12:27.357Z,2390
2017-09-19T13:13:28.753Z,2480
2017-09-19T13:14:30.146Z,2685
2017-09-19T13:15:31.531Z,2715
2017-09-19T13:16:32.928Z,2010
2017-09-19T13:17:34.317Z,1615
2017-09-19T13:18:35.716Z,775
2017-09-19T13:19:37.103Z,735
2017-09-19T13:20:38.491Z,2495
2017-09-19T13:21:39.878Z,2575
2017-09-19T13:22:41.318Z,2730
2017-09-19T13:23:42.737Z,2860
2017-09-19T13:24:44.121Z,2990
2017-09-19T13:25:45.512Z,3020
2017-09-19T13:26:46.919Z,2965
2017-09-19T13:27:48.309Z,2905
2017-09-19T13:28:49.697Z,3100
2017-09-19T13:29:51.090Z,2740
2017-09-19T13:30:52.477Z,3020
2017-09-19T13:31:53.886Z,2870
2017-09-19T13:32:55.281Z,2920
2017-09-19T13:33:56.674Z,2900
2017-09-19T13:34:58.071Z,2825
2017-09-19T13:35:59.449Z,2810
2017-09-19T13:37:00.839Z,2730
2017-09-19T13:38:02.228Z,2600
2017-09-19T13:39:03.619Z,2580
2017-09-19T13:40:05.011Z,2475
2017-09-19T13:41:06.399Z,2205
2017-09-19T13:42:07.796Z,2030
2017-09-19T13:43:09.184Z,2045
2017-09-19T13:44:10.575Z,1975
2017-09-19T13:45:11.968Z,2065
2017-09-19T13:46:13.361Z,1005
2017-09-19T13:47:14.756Z,845
2017-09-19T13:48:16.149Z,730
2017-09-19T13:49:17.540Z,540
2017-09-19T13:50:18.954Z,440
2017-09-19T13:51:20.344Z,480
2017-09-19T13:52:21.734Z,595
2017-09-19T13:53:23.125Z,740
2017-09-19T13:54:24.520Z,2100
2017-09-19T13:55:25.907Z,2025
2017-09-19T13:56:27.294Z,2015
2017-09-19T13:57:28.684Z,1905
2017-09-19T13:58:30.073Z,1795
2017-09-19T13:59:31.461Z,1725
2017-09-19T14:00:32.892Z,1730
2017-09-19T14:01:34.258Z,1650
2017-09-19T14:02:35.648Z,1620
2017-09-19T14:03:37.034Z,1575
2017-09-19T14:04:38.424Z,1530
2017-09-19T14:05:39.815Z,1550
2017-09-19T14:06:41.200Z,1590
2017-09-19T14:07:42.600Z,1595
2017-09-19T14:08:43.992Z,1565
2017-09-19T14:09:45.388Z,1520
2017-09-19T14:10:46.776Z,1445
2017-09-19T14:11:48.185Z,1445
2017-09-19T14:12:49.576Z,1415
2017-09-19T14:13:50.968Z,1400
2017-09-19T14:14:52.364Z,1420
2017-09-19T14:15:53.763Z,1470
2017-09-19T14:16:55.154Z,1505
2017-09-19T14:17:56.540Z,1535
2017-09-19T14:18:57.938Z,1540
2017-09-19T14:19:59.327Z,1575
2017-09-19T14:21:00.716Z,1575
2017-09-19T14:22:02.111Z,1575
2017-09-19T14:23:03.504Z,1555
2017-09-19T14:24:04.896Z,1535
2017-09-19T14:25:06.290Z,1525
2017-09-19T14:26:07.682Z,1580
2017-09-19T14:27:09.074Z,1030
2017-09-19T14:28:10.467Z,1635
2017-09-19T14:29:11.858Z,1170
2017-09-19T14:30:13.255Z,1135
2017-09-19T14:31:14.642Z,1110
2017-09-19T14:32:16.033Z,720